Decoded Metar for KMAW ( in ) (IATA:) | Meteo·Mobile Aviation Weather
aviador You're here:

KMAW Decoded Metar

in
Report Time2018-12-18 20:55:00
UTC Time2018-12-18 21:09:21
Flight Rules mvfr MVFR
Wind090° at 04 kt
W.Decomp.*RWY 14: 2.6 kt HW 3.1 kt LCW
RWY 18: 4 kt LCW
W.Rank090° ranks 36
Current wind is below 090° avg. (4.7)
Visibility8047 m
Phenomena:Haze
Clouds:N/A
Expected CloudBase > 4,800 ft AGL from Temp-Dew spread
CeilingNone
Temp12°C
Dew Point00°C (44% RH)
AAT8.6°C
QNH1020 hPa
Raw Report
KMAW 182055Z AUTO 09004KT 5SM HZ CLR 12/00 A3013 RMK AO2=

Extra information for KMAW:More info

Social comments